sensor_id;sensor_type;location;lat;lon;timestamp;temperature;humidity
18268;DHT22;9260;49.998;19.880;2022-12-18T00:07:49;-5.30;99.90
18268;DHT22;9260;49.998;19.880;2022-12-18T00:17:53;-5.30;99.90
18268;DHT22;9260;49.998;19.880;2022-12-18T00:27:58;-5.30;99.90
18268;DHT22;9260;49.998;19.880;2022-12-18T00:38:02;-5.30;99.90
18268;DHT22;9260;49.998;19.880;2022-12-18T00:48:07;-5.30;99.90
18268;DHT22;9260;49.998;19.880;2022-12-18T00:58:12;-5.20;99.90
18268;DHT22;9260;49.998;19.880;2022-12-18T01:08:18;-5.30;99.90
18268;DHT22;9260;49.998;19.880;2022-12-18T01:18:22;-5.30;99.90
18268;DHT22;9260;49.998;19.880;2022-12-18T01:28:27;-5.30;99.90
18268;DHT22;9260;49.998;19.880;2022-12-18T01:38:31;-5.30;99.90
18268;DHT22;9260;49.998;19.880;2022-12-18T01:48:36;-5.20;99.90
18268;DHT22;9260;49.998;19.880;2022-12-18T01:58:48;-5.30;99.90
18268;DHT22;9260;49.998;19.880;2022-12-18T02:09:03;-5.30;99.90
18268;DHT22;9260;49.998;19.880;2022-12-18T02:19:23;-5.30;99.90
18268;DHT22;9260;49.998;19.880;2022-12-18T02:29:42;-5.30;99.90
18268;DHT22;9260;49.998;19.880;2022-12-18T02:39:49;-5.20;99.90
18268;DHT22;9260;49.998;19.880;2022-12-18T02:50:04;-5.30;99.90
18268;DHT22;9260;49.998;19.880;2022-12-18T03:00:16;-5.30;99.90
18268;DHT22;9260;49.998;19.880;2022-12-18T03:10:27;-5.30;99.90
18268;DHT22;9260;49.998;19.880;2022-12-18T03:20:34;-5.30;99.90
18268;DHT22;9260;49.998;19.880;2022-12-18T03:30:44;-5.30;99.90
18268;DHT22;9260;49.998;19.880;2022-12-18T03:40:56;-5.40;99.90
18268;DHT22;9260;49.998;19.880;2022-12-18T03:51:10;-5.30;99.90
18268;DHT22;9260;49.998;19.880;2022-12-18T04:01:23;-5.30;99.90
18268;DHT22;9260;49.998;19.880;2022-12-18T04:11:32;-5.30;99.90
18268;DHT22;9260;49.998;19.880;2022-12-18T04:21:38;-5.30;99.90
18268;DHT22;9260;49.998;19.880;2022-12-18T04:31:45;-5.30;99.90
18268;DHT22;9260;49.998;19.880;2022-12-18T04:41:50;-5.30;99.90
18268;DHT22;9260;49.998;19.880;2022-12-18T04:51:55;-5.30;99.90
18268;DHT22;9260;49.998;19.880;2022-12-18T05:01:59;-5.40;99.90
18268;DHT22;9260;49.998;19.880;2022-12-18T05:12:05;-5.30;99.90
18268;DHT22;9260;49.998;19.880;2022-12-18T05:22:09;-5.40;99.90
18268;DHT22;9260;49.998;19.880;2022-12-18T05:32:14;-5.30;99.90
18268;DHT22;9260;49.998;19.880;2022-12-18T05:42:18;-5.30;99.90
18268;DHT22;9260;49.998;19.880;2022-12-18T05:52:24;-5.30;99.90
18268;DHT22;9260;49.998;19.880;2022-12-18T06:02:28;-5.20;99.90
18268;DHT22;9260;49.998;19.880;2022-12-18T06:12:33;-5.20;99.90
18268;DHT22;9260;49.998;19.880;2022-12-18T06:22:38;-5.20;99.90
18268;DHT22;9260;49.998;19.880;2022-12-18T06:32:46;-5.20;99.90
18268;DHT22;9260;49.998;19.880;2022-12-18T06:42:57;-5.20;99.90
18268;DHT22;9260;49.998;19.880;2022-12-18T06:53:02;-5.20;99.90
18268;DHT22;9260;49.998;19.880;2022-12-18T07:03:08;-5.20;99.90
18268;DHT22;9260;49.998;19.880;2022-12-18T07:13:14;-5.10;99.90
18268;DHT22;9260;49.998;19.880;2022-12-18T07:23:18;-5.00;99.90
18268;DHT22;9260;49.998;19.880;2022-12-18T07:33:23;-4.80;99.90
18268;DHT22;9260;49.998;19.880;2022-12-18T07:43:27;-4.60;99.90
18268;DHT22;9260;49.998;19.880;2022-12-18T07:53:33;-4.30;99.90
18268;DHT22;9260;49.998;19.880;2022-12-18T08:03:39;-4.10;99.90
18268;DHT22;9260;49.998;19.880;2022-12-18T08:13:45;-3.80;99.90
18268;DHT22;9260;49.998;19.880;2022-12-18T08:23:51;-3.30;99.90
18268;DHT22;9260;49.998;19.880;2022-12-18T08:33:59;-3.00;99.90
18268;DHT22;9260;49.998;19.880;2022-12-18T08:44:03;-2.70;99.90
18268;DHT22;9260;49.998;19.880;2022-12-18T08:54:40;-2.20;99.90
18268;DHT22;9260;49.998;19.880;2022-12-18T09:04:46;-1.90;99.90
18268;DHT22;9260;49.998;19.880;2022-12-18T09:14:59;-1.30;99.90
18268;DHT22;9260;49.998;19.880;2022-12-18T09:25:03;-0.80;99.90
18268;DHT22;9260;49.998;19.880;2022-12-18T09:35:12;-0.50;99.90
18268;DHT22;9260;49.998;19.880;2022-12-18T09:45:17;-0.10;99.90
18268;DHT22;9260;49.998;19.880;2022-12-18T09:55:26;0.80;99.90
18268;DHT22;9260;49.998;19.880;2022-12-18T10:05:45;2.90;99.90
18268;DHT22;9260;49.998;19.880;2022-12-18T10:16:08;4.90;99.90
18268;DHT22;9260;49.998;19.880;2022-12-18T10:26:14;7.30;99.90
18268;DHT22;9260;49.998;19.880;2022-12-18T10:36:21;16.00;99.90
18268;DHT22;9260;49.998;19.880;2022-12-18T10:46:26;20.00;99.90
18268;DHT22;9260;49.998;19.880;2022-12-18T10:56:34;22.30;99.90
18268;DHT22;9260;49.998;19.880;2022-12-18T11:06:56;23.50;99.90
18268;DHT22;9260;49.998;19.880;2022-12-18T11:17:03;24.40;99.90
18268;DHT22;9260;49.998;19.880;2022-12-18T11:27:28;23.70;99.90
18268;DHT22;9260;49.998;19.880;2022-12-18T11:37:35;24.70;99.90
18268;DHT22;9260;49.998;19.880;2022-12-18T11:47:43;24.40;99.90
18268;DHT22;9260;49.998;19.880;2022-12-18T11:57:58;24.00;99.90
18268;DHT22;9260;49.998;19.880;2022-12-18T12:08:11;14.10;99.90
18268;DHT22;9260;49.998;19.880;2022-12-18T12:18:28;13.70;99.90
18268;DHT22;9260;49.998;19.880;2022-12-18T12:39:29;20.00;99.90
18268;DHT22;9260;49.998;19.880;2022-12-18T12:49:34;19.00;99.90
18268;DHT22;9260;49.998;19.880;2022-12-18T12:59:51;17.50;99.90
18268;DHT22;9260;49.998;19.880;2022-12-18T13:10:23;17.70;99.90
18268;DHT22;9260;49.998;19.880;2022-12-18T13:20:37;17.80;99.90
18268;DHT22;9260;49.998;19.880;2022-12-18T13:30:47;16.40;99.90
18268;DHT22;9260;49.998;19.880;2022-12-18T13:41:00;14.80;99.90
18268;DHT22;9260;49.998;19.880;2022-12-18T13:51:06;12.80;99.90
18268;DHT22;9260;49.998;19.880;2022-12-18T14:01:24;9.90;99.90
18268;DHT22;9260;49.998;19.880;2022-12-18T14:11:29;3.90;99.90
18268;DHT22;9260;49.998;19.880;2022-12-18T14:21:37;0.20;99.90
18268;DHT22;9260;49.998;19.880;2022-12-18T14:31:41;-2.20;99.90
18268;DHT22;9260;49.998;19.880;2022-12-18T14:41:48;-3.90;99.90
18268;DHT22;9260;49.998;19.880;2022-12-18T14:51:54;-5.30;99.90
18268;DHT22;9260;49.998;19.880;2022-12-18T15:02:19;-6.00;99.90
18268;DHT22;9260;49.998;19.880;2022-12-18T15:12:33;-6.60;99.90
18268;DHT22;9260;49.998;19.880;2022-12-18T15:22:41;-7.00;99.90
18268;DHT22;9260;49.998;19.880;2022-12-18T15:32:46;-7.60;99.90
18268;DHT22;9260;49.998;19.880;2022-12-18T15:42:54;-8.00;99.90
18268;DHT22;9260;49.998;19.880;2022-12-18T15:53:32;-8.20;99.90
18268;DHT22;9260;49.998;19.880;2022-12-18T16:03:37;-8.90;99.90
18268;DHT22;9260;49.998;19.880;2022-12-18T16:13:42;-9.30;99.90
18268;DHT22;9260;49.998;19.880;2022-12-18T16:23:48;-9.80;99.90
18268;DHT22;9260;49.998;19.880;2022-12-18T16:34:10;-10.00;99.90
18268;DHT22;9260;49.998;19.880;2022-12-18T16:44:16;-10.50;99.90
18268;DHT22;9260;49.998;19.880;2022-12-18T16:54:20;-10.90;99.90
18268;DHT22;9260;49.998;19.880;2022-12-18T17:04:25;-11.10;99.90
18268;DHT22;9260;49.998;19.880;2022-12-18T17:14:29;-11.40;99.90
18268;DHT22;9260;49.998;19.880;2022-12-18T17:24:35;-11.80;99.90
18268;DHT22;9260;49.998;19.880;2022-12-18T17:34:39;-12.30;99.90
18268;DHT22;9260;49.998;19.880;2022-12-18T17:44:44;-12.30;99.90
18268;DHT22;9260;49.998;19.880;2022-12-18T17:54:48;-12.40;99.90
18268;DHT22;9260;49.998;19.880;2022-12-18T18:04:53;-12.40;99.90
18268;DHT22;9260;49.998;19.880;2022-12-18T18:14:57;-12.50;99.90
18268;DHT22;9260;49.998;19.880;2022-12-18T18:25:02;-12.50;99.90
18268;DHT22;9260;49.998;19.880;2022-12-18T18:35:12;-12.70;99.90
18268;DHT22;9260;49.998;19.880;2022-12-18T18:45:37;-13.10;99.90
18268;DHT22;9260;49.998;19.880;2022-12-18T18:55:43;-13.10;99.90
18268;DHT22;9260;49.998;19.880;2022-12-18T19:06:01;-13.40;99.90
18268;DHT22;9260;49.998;19.880;2022-12-18T19:16:08;-12.80;99.90
18268;DHT22;9260;49.998;19.880;2022-12-18T19:26:14;-13.50;99.90
18268;DHT22;9260;49.998;19.880;2022-12-18T19:36:29;-13.60;99.90
18268;DHT22;9260;49.998;19.880;2022-12-18T19:46:36;-13.80;99.90
18268;DHT22;9260;49.998;19.880;2022-12-18T19:56:46;-13.90;99.90
18268;DHT22;9260;49.998;19.880;2022-12-18T20:06:52;-13.90;99.90
18268;DHT22;9260;49.998;19.880;2022-12-18T20:16:56;-14.00;99.90
18268;DHT22;9260;49.998;19.880;2022-12-18T20:27:02;-14.10;99.90
18268;DHT22;9260;49.998;19.880;2022-12-18T20:37:14;-14.00;99.90
18268;DHT22;9260;49.998;19.880;2022-12-18T20:47:21;-14.10;99.90
18268;DHT22;9260;49.998;19.880;2022-12-18T20:57:25;-14.20;99.90
18268;DHT22;9260;49.998;19.880;2022-12-18T21:07:30;-14.40;99.90
18268;DHT22;9260;49.998;19.880;2022-12-18T21:17:35;-14.60;99.90
18268;DHT22;9260;49.998;19.880;2022-12-18T21:27:47;-14.60;99.90
18268;DHT22;9260;49.998;19.880;2022-12-18T21:37:51;-14.60;99.90
18268;DHT22;9260;49.998;19.880;2022-12-18T21:47:56;-14.70;99.90
18268;DHT22;9260;49.998;19.880;2022-12-18T21:58:00;-14.60;99.90
18268;DHT22;9260;49.998;19.880;2022-12-18T22:08:05;-14.80;99.90
18268;DHT22;9260;49.998;19.880;2022-12-18T22:18:10;-14.90;99.90
18268;DHT22;9260;49.998;19.880;2022-12-18T22:28:16;-14.90;99.90
18268;DHT22;9260;49.998;19.880;2022-12-18T22:38:37;-15.30;99.90
18268;DHT22;9260;49.998;19.880;2022-12-18T22:48:42;-15.50;99.90
18268;DHT22;9260;49.998;19.880;2022-12-18T22:58:47;-15.50;99.90
18268;DHT22;9260;49.998;19.880;2022-12-18T23:08:53;-16.00;99.90
18268;DHT22;9260;49.998;19.880;2022-12-18T23:18:58;-16.10;99.90
18268;DHT22;9260;49.998;19.880;2022-12-18T23:29:03;-16.20;99.90
18268;DHT22;9260;49.998;19.880;2022-12-18T23:39:10;-16.30;99.90
18268;DHT22;9260;49.998;19.880;2022-12-18T23:49:32;-16.20;99.90
18268;DHT22;9260;49.998;19.880;2022-12-18T23:59:36;-16.40;99.90
